sensor_id;sensor_type;location;lat;lon;timestamp;pressure;altitude;pressure_sealevel;temperature;humidity
22662;BME280;11497;52.222;21.246;2023-04-27T00:01:54;100408.28;;;0.69;97.56
22662;BME280;11497;52.222;21.246;2023-04-27T00:04:22;100410.78;;;0.61;97.63
22662;BME280;11497;52.222;21.246;2023-04-27T00:06:50;100410.75;;;0.53;97.49
22662;BME280;11497;52.222;21.246;2023-04-27T00:09:18;100407.28;;;0.50;97.54
22662;BME280;11497;52.222;21.246;2023-04-27T00:11:46;100408.94;;;0.45;97.99
22662;BME280;11497;52.222;21.246;2023-04-27T00:14:14;100406.38;;;0.43;97.94
22662;BME280;11497;52.222;21.246;2023-04-27T00:16:42;100405.53;;;0.43;98.26
22662;BME280;11497;52.222;21.246;2023-04-27T00:19:10;100405.44;;;0.33;98.24
22662;BME280;11497;52.222;21.246;2023-04-27T00:21:38;100414.78;;;0.22;98.39
22662;BME280;11497;52.222;21.246;2023-04-27T00:24:06;100402.72;;;0.18;98.88
22662;BME280;11497;52.222;21.246;2023-04-27T00:26:34;100403.56;;;0.16;98.87
22662;BME280;11497;52.222;21.246;2023-04-27T00:29:01;100405.22;;;0.09;98.77
22662;BME280;11497;52.222;21.246;2023-04-27T00:31:30;100407.78;;;0.08;99.42
22662;BME280;11497;52.222;21.246;2023-04-27T00:33:57;100426.56;;;0.00;99.55
22662;BME280;11497;52.222;21.246;2023-04-27T00:36:26;100427.47;;;0.04;99.60
22662;BME280;11497;52.222;21.246;2023-04-27T00:38:53;100430.91;;;0.06;99.60
22662;BME280;11497;52.222;21.246;2023-04-27T00:41:22;100423.22;;;0.09;99.56
22662;BME280;11497;52.222;21.246;2023-04-27T00:43:50;100423.19;;;0.05;100.00
22662;BME280;11497;52.222;21.246;2023-04-27T00:46:18;100427.44;;;-0.02;99.80
22662;BME280;11497;52.222;21.246;2023-04-27T00:48:46;100435.09;;;-0.08;100.00
22662;BME280;11497;52.222;21.246;2023-04-27T00:51:14;100430.00;;;-0.04;100.00
22662;BME280;11497;52.222;21.246;2023-04-27T00:53:43;100435.94;;;-0.09;100.00
22662;BME280;11497;52.222;21.246;2023-04-27T00:56:12;100434.28;;;-0.04;100.00
22662;BME280;11497;52.222;21.246;2023-04-27T00:58:40;100430.91;;;0.05;100.00
22662;BME280;11497;52.222;21.246;2023-04-27T01:01:09;100440.28;;;-0.05;100.00
22662;BME280;11497;52.222;21.246;2023-04-27T01:03:37;100435.91;;;-0.12;100.00
22662;BME280;11497;52.222;21.246;2023-04-27T01:06:06;100434.97;;;-0.17;100.00
22662;BME280;11497;52.222;21.246;2023-04-27T01:08:35;100439.22;;;-0.22;100.00
22662;BME280;11497;52.222;21.246;2023-04-27T01:11:03;100434.94;;;-0.22;100.00
22662;BME280;11497;52.222;21.246;2023-04-27T01:13:31;100446.88;;;-0.27;100.00
22662;BME280;11497;52.222;21.246;2023-04-27T01:15:59;100441.72;;;-0.28;100.00
22662;BME280;11497;52.222;21.246;2023-04-27T01:18:26;100446.72;;;-0.39;100.00
22662;BME280;11497;52.222;21.246;2023-04-27T01:20:56;100438.97;;;-0.44;100.00
22662;BME280;11497;52.222;21.246;2023-04-27T01:23:25;100442.38;;;-0.48;100.00
22662;BME280;11497;52.222;21.246;2023-04-27T01:25:53;100443.22;;;-0.47;100.00
22662;BME280;11497;52.222;21.246;2023-04-27T01:28:20;100452.56;;;-0.54;100.00
22662;BME280;11497;52.222;21.246;2023-04-27T01:30:48;100449.91;;;-0.60;100.00
22662;BME280;11497;52.222;21.246;2023-04-27T01:33:17;100448.19;;;-0.61;100.00
22662;BME280;11497;52.222;21.246;2023-04-27T01:35:48;100445.78;;;-0.49;100.00
22662;BME280;11497;52.222;21.246;2023-04-27T01:38:16;100455.09;;;-0.57;100.00
22662;BME280;11497;52.222;21.246;2023-04-27T01:40:44;100458.50;;;-0.59;100.00
22662;BME280;11497;52.222;21.246;2023-04-27T01:43:12;100450.69;;;-0.67;100.00
22662;BME280;11497;52.222;21.246;2023-04-27T01:45:40;100448.00;;;-0.75;100.00
22662;BME280;11497;52.222;21.246;2023-04-27T01:48:08;100459.94;;;-0.78;100.00
22662;BME280;11497;52.222;21.246;2023-04-27T01:50:36;100456.44;;;-0.83;100.00
22662;BME280;11497;52.222;21.246;2023-04-27T01:53:06;100455.56;;;-0.84;100.00
22662;BME280;11497;52.222;21.246;2023-04-27T01:55:34;100463.25;;;-0.88;100.00
22662;BME280;11497;52.222;21.246;2023-04-27T01:58:02;100458.13;;;-0.87;100.00
22662;BME280;11497;52.222;21.246;2023-04-27T02:00:31;100460.63;;;-0.91;100.00
22662;BME280;11497;52.222;21.246;2023-04-27T02:02:58;100457.19;;;-0.93;100.00
22662;BME280;11497;52.222;21.246;2023-04-27T02:05:28;100457.19;;;-0.93;100.00
22662;BME280;11497;52.222;21.246;2023-04-27T02:07:56;100452.00;;;-0.96;100.00
22662;BME280;11497;52.222;21.246;2023-04-27T02:10:24;100458.78;;;-1.02;100.00
22662;BME280;11497;52.222;21.246;2023-04-27T02:12:55;100463.88;;;-1.05;100.00
22662;BME280;11497;52.222;21.246;2023-04-27T02:15:24;100463.91;;;-1.02;100.00
22662;BME280;11497;52.222;21.246;2023-04-27T02:17:51;100456.94;;;-1.10;100.00
22662;BME280;11497;52.222;21.246;2023-04-27T02:20:19;100468.84;;;-1.14;100.00
22662;BME280;11497;52.222;21.246;2023-04-27T02:22:47;100462.78;;;-1.19;100.00
22662;BME280;11497;52.222;21.246;2023-04-27T02:25:15;100459.41;;;-1.16;100.00
22662;BME280;11497;52.222;21.246;2023-04-27T02:27:43;100460.25;;;-1.17;100.00
22662;BME280;11497;52.222;21.246;2023-04-27T02:30:11;100455.94;;;-1.18;100.00
22662;BME280;11497;52.222;21.246;2023-04-27T02:32:40;100463.72;;;-1.14;100.00
22662;BME280;11497;52.222;21.246;2023-04-27T02:35:08;100464.50;;;-1.18;100.00
22662;BME280;11497;52.222;21.246;2023-04-27T02:37:36;100458.50;;;-1.20;100.00
22662;BME280;11497;52.222;21.246;2023-04-27T02:40:04;100462.84;;;-1.16;100.00
22662;BME280;11497;52.222;21.246;2023-04-27T02:42:35;100463.78;;;-1.11;100.00
22662;BME280;11497;52.222;21.246;2023-04-27T02:45:06;100464.50;;;-1.19;100.00
22662;BME280;11497;52.222;21.246;2023-04-27T02:47:36;100467.19;;;-1.12;100.00
22662;BME280;11497;52.222;21.246;2023-04-27T02:50:04;100470.53;;;-1.16;100.00
22662;BME280;11497;52.222;21.246;2023-04-27T02:52:34;100470.63;;;-1.10;100.00
22662;BME280;11497;52.222;21.246;2023-04-27T02:55:02;100473.00;;;-1.22;100.00
22662;BME280;11497;52.222;21.246;2023-04-27T02:57:30;100467.91;;;-1.20;100.00
22662;BME280;11497;52.222;21.246;2023-04-27T02:59:58;100479.03;;;-1.20;100.00
22662;BME280;11497;52.222;21.246;2023-04-27T03:02:26;100477.25;;;-1.24;100.00
22662;BME280;11497;52.222;21.246;2023-04-27T03:04:54;100475.63;;;-1.19;100.00
22662;BME280;11497;52.222;21.246;2023-04-27T03:07:23;100473.91;;;-1.20;100.00
22662;BME280;11497;52.222;21.246;2023-04-27T03:09:51;100483.44;;;-1.11;100.00
22662;BME280;11497;52.222;21.246;2023-04-27T03:12:19;100487.63;;;-1.18;100.00
22662;BME280;11497;52.222;21.246;2023-04-27T03:14:47;100492.69;;;-1.22;100.00
22662;BME280;11497;52.222;21.246;2023-04-27T03:17:15;100489.25;;;-1.23;100.00
22662;BME280;11497;52.222;21.246;2023-04-27T03:19:42;100491.91;;;-1.18;100.00
22662;BME280;11497;52.222;21.246;2023-04-27T03:22:10;100488.50;;;-1.16;100.00
22662;BME280;11497;52.222;21.246;2023-04-27T03:24:38;100496.47;;;-1.01;100.00
22662;BME280;11497;52.222;21.246;2023-04-27T03:27:06;100494.00;;;-0.94;100.00
22662;BME280;11497;52.222;21.246;2023-04-27T03:29:34;100494.00;;;-0.94;100.00
22662;BME280;11497;52.222;21.246;2023-04-27T03:32:04;100494.94;;;-0.89;100.00
22662;BME280;11497;52.222;21.246;2023-04-27T03:34:33;100494.97;;;-0.83;100.00
22662;BME280;11497;52.222;21.246;2023-04-27T03:37:01;100493.34;;;-0.78;100.00
22662;BME280;11497;52.222;21.246;2023-04-27T03:39:29;100496.84;;;-0.73;100.00
22662;BME280;11497;52.222;21.246;2023-04-27T03:41:57;100495.25;;;-0.65;100.00
22662;BME280;11497;52.222;21.246;2023-04-27T03:44:25;100490.31;;;-0.50;100.00
22662;BME280;11497;52.222;21.246;2023-04-27T03:46:53;100495.47;;;-0.50;100.00
22662;BME280;11497;52.222;21.246;2023-04-27T03:49:22;100493.75;;;-0.51;100.00
22662;BME280;11497;52.222;21.246;2023-04-27T03:51:49;100492.19;;;-0.37;100.00
22662;BME280;11497;52.222;21.246;2023-04-27T03:54:18;100495.00;;;-0.17;100.00
22662;BME280;11497;52.222;21.246;2023-04-27T03:56:46;100494.28;;;-0.05;100.00
22662;BME280;11497;52.222;21.246;2023-04-27T03:59:15;100500.25;;;-0.09;100.00
22662;BME280;11497;52.222;21.246;2023-04-27T04:01:48;100504.63;;;-0.02;100.00
22662;BME280;11497;52.222;21.246;2023-04-27T04:04:16;100509.00;;;0.10;100.00
22662;BME280;11497;52.222;21.246;2023-04-27T04:06:44;100501.41;;;0.20;100.00
22662;BME280;11497;52.222;21.246;2023-04-27T04:09:13;100489.44;;;0.22;100.00
22662;BME280;11497;52.222;21.246;2023-04-27T04:11:43;100511.06;;;0.41;100.00
22662;BME280;11497;52.222;21.246;2023-04-27T04:14:15;100512.97;;;0.63;100.00
22662;BME280;11497;52.222;21.246;2023-04-27T04:16:42;100519.06;;;0.70;100.00
22662;BME280;11497;52.222;21.246;2023-04-27T04:19:10;100519.22;;;0.91;100.00
22662;BME280;11497;52.222;21.246;2023-04-27T04:21:38;100521.03;;;1.05;100.00
22662;BME280;11497;52.222;21.246;2023-04-27T04:24:08;100517.34;;;2.34;100.00
22662;BME280;11497;52.222;21.246;2023-04-27T04:26:36;100519.94;;;3.29;100.00
22662;BME280;11497;52.222;21.246;2023-04-27T04:29:06;100524.97;;;3.76;100.00
22662;BME280;11497;52.222;21.246;2023-04-27T04:31:37;100509.81;;;5.58;100.00
22662;BME280;11497;52.222;21.246;2023-04-27T04:34:05;100532.59;;;6.70;96.40
22662;BME280;11497;52.222;21.246;2023-04-27T04:36:33;100531.31;;;6.40;91.55
22662;BME280;11497;52.222;21.246;2023-04-27T04:39:01;100537.72;;;7.75;87.01
22662;BME280;11497;52.222;21.246;2023-04-27T04:41:31;100535.34;;;9.85;79.24
22662;BME280;11497;52.222;21.246;2023-04-27T04:44:00;100541.53;;;9.50;72.01
22662;BME280;11497;52.222;21.246;2023-04-27T04:46:28;100539.69;;;8.05;70.83
22662;BME280;11497;52.222;21.246;2023-04-27T04:48:57;100544.00;;;7.64;71.02
22662;BME280;11497;52.222;21.246;2023-04-27T04:51:25;100537.97;;;8.46;70.01
22662;BME280;11497;52.222;21.246;2023-04-27T04:53:53;100545.56;;;8.56;68.70
22662;BME280;11497;52.222;21.246;2023-04-27T04:56:22;100536.00;;;8.57;68.60
22662;BME280;11497;52.222;21.246;2023-04-27T04:58:53;100531.00;;;9.19;66.41
22662;BME280;11497;52.222;21.246;2023-04-27T05:01:21;100534.50;;;9.52;64.09
22662;BME280;11497;52.222;21.246;2023-04-27T05:03:49;100539.81;;;9.80;62.76
22662;BME280;11497;52.222;21.246;2023-04-27T05:06:16;100536.81;;;10.24;60.43
22662;BME280;11497;52.222;21.246;2023-04-27T05:08:44;100536.91;;;10.21;59.43
22662;BME280;11497;52.222;21.246;2023-04-27T05:11:12;100542.66;;;9.72;59.43
22662;BME280;11497;52.222;21.246;2023-04-27T05:13:40;100544.88;;;9.21;59.45
22662;BME280;11497;52.222;21.246;2023-04-27T05:16:08;100537.53;;;14.59;54.93
22662;BME280;11497;52.222;21.246;2023-04-27T05:18:36;100539.75;;;16.54;47.81
22662;BME280;11497;52.222;21.246;2023-04-27T05:21:04;100544.28;;;14.27;46.52
22662;BME280;11497;52.222;21.246;2023-04-27T05:23:32;100540.44;;;13.56;47.29
22662;BME280;11497;52.222;21.246;2023-04-27T05:25:59;100547.00;;;13.04;48.15
22662;BME280;11497;52.222;21.246;2023-04-27T05:28:27;100550.41;;;15.19;45.88
22662;BME280;11497;52.222;21.246;2023-04-27T05:30:55;100544.53;;;15.31;44.00
22662;BME280;11497;52.222;21.246;2023-04-27T05:33:23;100555.56;;;13.09;45.34
22662;BME280;11497;52.222;21.246;2023-04-27T05:35:50;100548.66;;;12.18;46.76
22662;BME280;11497;52.222;21.246;2023-04-27T05:38:18;100554.88;;;12.60;47.14
22662;BME280;11497;52.222;21.246;2023-04-27T05:40:46;100547.78;;;15.36;44.52
22662;BME280;11497;52.222;21.246;2023-04-27T05:43:14;100550.09;;;15.08;42.92
22662;BME280;11497;52.222;21.246;2023-04-27T05:45:42;100531.63;;;15.77;41.48
22662;BME280;11497;52.222;21.246;2023-04-27T05:48:10;100544.16;;;14.85;41.46
22662;BME280;11497;52.222;21.246;2023-04-27T05:50:38;100542.88;;;14.58;42.59
22662;BME280;11497;52.222;21.246;2023-04-27T05:53:06;100553.19;;;13.86;42.84
22662;BME280;11497;52.222;21.246;2023-04-27T05:55:34;100550.97;;;14.72;42.35
22662;BME280;11497;52.222;21.246;2023-04-27T05:58:02;100549.09;;;14.74;42.04
22662;BME280;11497;52.222;21.246;2023-04-27T06:00:35;100556.38;;;14.69;41.67
22662;BME280;11497;52.222;21.246;2023-04-27T06:03:03;100555.81;;;14.25;41.83
22662;BME280;11497;52.222;21.246;2023-04-27T06:05:31;100554.69;;;14.68;41.84
22662;BME280;11497;52.222;21.246;2023-04-27T06:08:01;100558.56;;;14.41;42.19
22662;BME280;11497;52.222;21.246;2023-04-27T06:10:29;100561.69;;;14.11;42.44
22662;BME280;11497;52.222;21.246;2023-04-27T06:12:57;100564.03;;;14.17;42.48
22662;BME280;11497;52.222;21.246;2023-04-27T06:15:25;100557.78;;;14.39;42.21
22662;BME280;11497;52.222;21.246;2023-04-27T06:17:53;100568.34;;;15.29;41.23
22662;BME280;11497;52.222;21.246;2023-04-27T06:20:21;100557.91;;;16.28;39.62
22662;BME280;11497;52.222;21.246;2023-04-27T06:22:49;100565.56;;;16.49;39.15
22662;BME280;11497;52.222;21.246;2023-04-27T06:25:16;100558.81;;;16.76;38.14
22662;BME280;11497;52.222;21.246;2023-04-27T06:27:44;100566.25;;;17.45;36.82
22662;BME280;11497;52.222;21.246;2023-04-27T06:30:13;100554.22;;;17.40;36.16
22662;BME280;11497;52.222;21.246;2023-04-27T06:32:40;100565.97;;;17.80;36.19
22662;BME280;11497;52.222;21.246;2023-04-27T06:35:09;100571.19;;;17.95;35.54
22662;BME280;11497;52.222;21.246;2023-04-27T06:37:37;100565.00;;;17.67;34.95
22662;BME280;11497;52.222;21.246;2023-04-27T06:40:06;100563.50;;;17.91;34.60
22662;BME280;11497;52.222;21.246;2023-04-27T06:42:34;100574.31;;;18.16;34.59
22662;BME280;11497;52.222;21.246;2023-04-27T06:45:03;100569.28;;;17.53;34.31
22662;BME280;11497;52.222;21.246;2023-04-27T06:47:32;100577.91;;;17.27;34.75
22662;BME280;11497;52.222;21.246;2023-04-27T06:50:00;100571.81;;;17.11;35.20
22662;BME280;11497;52.222;21.246;2023-04-27T06:52:30;100565.72;;;17.54;34.32
22662;BME280;11497;52.222;21.246;2023-04-27T06:54:58;100579.44;;;18.19;34.10
22662;BME280;11497;52.222;21.246;2023-04-27T06:57:26;100573.38;;;19.53;33.06
22662;BME280;11497;52.222;21.246;2023-04-27T06:59:54;100574.13;;;20.57;31.53
22662;BME280;11497;52.222;21.246;2023-04-27T07:02:22;100577.19;;;21.59;29.84
22662;BME280;11497;52.222;21.246;2023-04-27T07:04:52;100571.19;;;22.57;28.50
22662;BME280;11497;52.222;21.246;2023-04-27T07:07:20;100579.81;;;22.83;27.35
22662;BME280;11497;52.222;21.246;2023-04-27T07:09:48;100583.44;;;22.82;27.14
22662;BME280;11497;52.222;21.246;2023-04-27T07:12:15;100574.38;;;22.29;26.67
22662;BME280;11497;52.222;21.246;2023-04-27T07:14:43;100577.94;;;21.83;26.55
22662;BME280;11497;52.222;21.246;2023-04-27T07:17:11;100587.97;;;21.57;27.10
22662;BME280;11497;52.222;21.246;2023-04-27T07:19:39;100582.72;;;22.58;26.63
22662;BME280;11497;52.222;21.246;2023-04-27T07:22:07;100587.56;;;22.86;25.73
22662;BME280;11497;52.222;21.246;2023-04-27T07:24:34;100582.72;;;23.23;25.25
22662;BME280;11497;52.222;21.246;2023-04-27T07:27:02;100586.16;;;23.67;24.50
22662;BME280;11497;52.222;21.246;2023-04-27T07:29:30;100579.31;;;24.56;23.56
22662;BME280;11497;52.222;21.246;2023-04-27T07:31:59;100592.69;;;25.64;22.88
22662;BME280;11497;52.222;21.246;2023-04-27T07:34:27;100587.06;;;26.60;22.33
22662;BME280;11497;52.222;21.246;2023-04-27T07:37:08;100585.88;;;27.79;20.66
22662;BME280;11497;52.222;21.246;2023-04-27T07:39:36;100584.84;;;28.24;20.36
22662;BME280;11497;52.222;21.246;2023-04-27T07:42:04;100588.03;;;28.61;19.10
22662;BME280;11497;52.222;21.246;2023-04-27T07:44:32;100585.22;;;28.29;18.61
22662;BME280;11497;52.222;21.246;2023-04-27T07:47:00;100578.63;;;28.65;17.89
22662;BME280;11497;52.222;21.246;2023-04-27T07:49:30;100583.50;;;29.36;17.61
22662;BME280;11497;52.222;21.246;2023-04-27T07:51:59;100585.56;;;28.34;17.98
22662;BME280;11497;52.222;21.246;2023-04-27T07:54:26;100589.88;;;28.53;17.94
22662;BME280;11497;52.222;21.246;2023-04-27T07:56:54;100594.38;;;28.86;18.15
22662;BME280;11497;52.222;21.246;2023-04-27T07:59:22;100594.09;;;28.97;17.72
22662;BME280;11497;52.222;21.246;2023-04-27T08:01:50;100594.31;;;29.36;16.79
22662;BME280;11497;52.222;21.246;2023-04-27T08:04:18;100589.75;;;29.53;17.04
22662;BME280;11497;52.222;21.246;2023-04-27T08:06:46;100605.59;;;29.89;16.86
22662;BME280;11497;52.222;21.246;2023-04-27T08:09:15;100601.91;;;29.57;16.51
22662;BME280;11497;52.222;21.246;2023-04-27T08:11:43;100591.94;;;29.50;17.14
22662;BME280;11497;52.222;21.246;2023-04-27T08:14:11;100600.03;;;29.50;16.36
22662;BME280;11497;52.222;21.246;2023-04-27T08:16:41;100588.94;;;29.44;16.45
22662;BME280;11497;52.222;21.246;2023-04-27T08:19:10;100597.66;;;29.22;16.76
22662;BME280;11497;52.222;21.246;2023-04-27T08:21:38;100591.03;;;26.56;17.76
22662;BME280;11497;52.222;21.246;2023-04-27T08:24:06;100597.88;;;24.48;19.23
22662;BME280;11497;52.222;21.246;2023-04-27T08:26:34;100589.91;;;23.12;20.62
22662;BME280;11497;52.222;21.246;2023-04-27T08:29:03;100597.47;;;20.77;21.92
22662;BME280;11497;52.222;21.246;2023-04-27T08:31:50;100600.91;;;20.90;23.03
22662;BME280;11497;52.222;21.246;2023-04-27T08:34:20;100594.56;;;21.17;23.85
22662;BME280;11497;52.222;21.246;2023-04-27T08:36:48;100595.19;;;23.34;22.53
22662;BME280;11497;52.222;21.246;2023-04-27T08:39:16;100583.69;;;25.07;21.50
22662;BME280;11497;52.222;21.246;2023-04-27T08:41:45;100573.78;;;25.84;20.05
22662;BME280;11497;52.222;21.246;2023-04-27T08:44:13;100585.66;;;23.41;20.86
22662;BME280;11497;52.222;21.246;2023-04-27T08:46:41;100597.50;;;21.25;22.31
22662;BME280;11497;52.222;21.246;2023-04-27T08:49:09;100572.16;;;22.56;22.61
22662;BME280;11497;52.222;21.246;2023-04-27T08:51:37;100576.09;;;23.39;21.51
22662;BME280;11497;52.222;21.246;2023-04-27T08:54:05;100579.41;;;21.87;21.87
22662;BME280;11497;52.222;21.246;2023-04-27T08:56:33;100584.28;;;19.36;23.03
22662;BME280;11497;52.222;21.246;2023-04-27T08:59:01;100595.56;;;17.56;24.82
22662;BME280;11497;52.222;21.246;2023-04-27T09:01:33;100601.50;;;15.87;27.26
22662;BME280;11497;52.222;21.246;2023-04-27T09:04:01;100597.25;;;14.59;29.17
22662;BME280;11497;52.222;21.246;2023-04-27T09:06:31;100596.03;;;14.08;30.99
22662;BME280;11497;52.222;21.246;2023-04-27T09:09:00;100604.09;;;13.85;32.25
22662;BME280;11497;52.222;21.246;2023-04-27T09:11:30;100606.50;;;13.05;33.89
22662;BME280;11497;52.222;21.246;2023-04-27T09:13:59;100609.66;;;12.48;35.28
22662;BME280;11497;52.222;21.246;2023-04-27T09:16:29;100601.97;;;12.18;36.77
22662;BME280;11497;52.222;21.246;2023-04-27T09:18:58;100597.72;;;12.39;37.82
22662;BME280;11497;52.222;21.246;2023-04-27T09:21:29;100610.56;;;12.23;38.63
22662;BME280;11497;52.222;21.246;2023-04-27T09:23:57;100605.25;;;12.25;39.07
22662;BME280;11497;52.222;21.246;2023-04-27T09:26:37;100595.25;;;12.58;39.51
22662;BME280;11497;52.222;21.246;2023-04-27T09:29:04;100595.91;;;12.41;40.29
22662;BME280;11497;52.222;21.246;2023-04-27T09:31:36;100595.38;;;12.55;40.42
22662;BME280;11497;52.222;21.246;2023-04-27T09:34:03;100584.88;;;12.55;41.05
22662;BME280;11497;52.222;21.246;2023-04-27T09:36:31;100596.66;;;12.45;41.28
22662;BME280;11497;52.222;21.246;2023-04-27T09:39:02;100597.47;;;12.22;41.41
22662;BME280;11497;52.222;21.246;2023-04-27T09:41:33;100607.06;;;11.99;42.38
22662;BME280;11497;52.222;21.246;2023-04-27T09:44:02;100606.41;;;11.93;42.70
22662;BME280;11497;52.222;21.246;2023-04-27T09:46:32;100607.69;;;11.81;43.42
22662;BME280;11497;52.222;21.246;2023-04-27T09:49:03;100607.84;;;11.77;43.98
22662;BME280;11497;52.222;21.246;2023-04-27T09:51:33;100601.56;;;11.56;45.19
22662;BME280;11497;52.222;21.246;2023-04-27T09:54:02;100605.25;;;11.50;47.06
22662;BME280;11497;52.222;21.246;2023-04-27T09:59:31;100590.31;;;11.79;48.19
22662;BME280;11497;52.222;21.246;2023-04-27T10:02:04;100602.94;;;11.92;47.70
22662;BME280;11497;52.222;21.246;2023-04-27T10:07:59;100603.25;;;12.31;48.13
22662;BME280;11497;52.222;21.246;2023-04-27T10:10:29;100598.44;;;12.66;47.90
22662;BME280;11497;52.222;21.246;2023-04-27T10:13:00;100596.06;;;13.04;45.94
22662;BME280;11497;52.222;21.246;2023-04-27T10:15:29;100602.50;;;13.40;45.12
22662;BME280;11497;52.222;21.246;2023-04-27T10:18:03;100593.72;;;14.01;44.51
22662;BME280;11497;52.222;21.246;2023-04-27T10:20:34;100589.25;;;14.03;42.80
22662;BME280;11497;52.222;21.246;2023-04-27T10:23:02;100595.44;;;14.41;42.10
22662;BME280;11497;52.222;21.246;2023-04-27T10:25:40;100589.72;;;14.70;40.63
22662;BME280;11497;52.222;21.246;2023-04-27T10:28:15;100588.38;;;14.97;39.98
22662;BME280;11497;52.222;21.246;2023-04-27T10:30:48;100589.78;;;14.50;39.41
22662;BME280;11497;52.222;21.246;2023-04-27T10:33:18;100593.69;;;14.60;39.10
22662;BME280;11497;52.222;21.246;2023-04-27T10:35:55;100597.16;;;14.42;38.73
22662;BME280;11497;52.222;21.246;2023-04-27T10:38:30;100591.34;;;14.33;38.21
22662;BME280;11497;52.222;21.246;2023-04-27T10:40:59;100587.47;;;14.23;38.65
22662;BME280;11497;52.222;21.246;2023-04-27T10:43:34;100589.16;;;13.85;39.02
22662;BME280;11497;52.222;21.246;2023-04-27T10:46:13;100594.63;;;13.60;39.22
22662;BME280;11497;52.222;21.246;2023-04-27T10:48:42;100594.56;;;13.42;39.58
22662;BME280;11497;52.222;21.246;2023-04-27T10:51:15;100597.66;;;13.72;39.92
22662;BME280;11497;52.222;21.246;2023-04-27T10:53:44;100598.13;;;13.81;39.82
22662;BME280;11497;52.222;21.246;2023-04-27T10:56:12;100595.22;;;14.26;39.28
22662;BME280;11497;52.222;21.246;2023-04-27T10:58:40;100597.41;;;14.56;39.21
22662;BME280;11497;52.222;21.246;2023-04-27T11:01:25;100597.66;;;14.87;38.35
22662;BME280;11497;52.222;21.246;2023-04-27T11:04:00;100592.28;;;15.08;37.63
22662;BME280;11497;52.222;21.246;2023-04-27T11:06:30;100594.72;;;14.75;37.34
22662;BME280;11497;52.222;21.246;2023-04-27T11:09:01;100593.41;;;14.66;37.78
22662;BME280;11497;52.222;21.246;2023-04-27T11:11:29;100594.13;;;14.51;37.27
22662;BME280;11497;52.222;21.246;2023-04-27T11:13:57;100604.66;;;14.30;37.15
22662;BME280;11497;52.222;21.246;2023-04-27T11:16:25;100601.34;;;14.27;37.16
22662;BME280;11497;52.222;21.246;2023-04-27T11:18:53;100605.75;;;14.26;37.52
22662;BME280;11497;52.222;21.246;2023-04-27T11:21:21;100602.75;;;14.34;37.46
22662;BME280;11497;52.222;21.246;2023-04-27T11:23:50;100615.28;;;14.29;37.37
22662;BME280;11497;52.222;21.246;2023-04-27T11:26:21;100616.28;;;14.26;37.24
22662;BME280;11497;52.222;21.246;2023-04-27T11:29:04;100605.63;;;14.29;37.47
22662;BME280;11497;52.222;21.246;2023-04-27T11:31:47;100618.66;;;14.12;36.99
22662;BME280;11497;52.222;21.246;2023-04-27T11:34:18;100617.88;;;13.90;37.40
22662;BME280;11497;52.222;21.246;2023-04-27T11:37:00;100616.56;;;13.59;37.57
22662;BME280;11497;52.222;21.246;2023-04-27T11:39:38;100620.34;;;13.32;38.09
22662;BME280;11497;52.222;21.246;2023-04-27T11:42:23;100621.16;;;12.67;38.62
22662;BME280;11497;52.222;21.246;2023-04-27T11:45:03;100630.78;;;12.20;39.71
22662;BME280;11497;52.222;21.246;2023-04-27T11:47:35;100626.59;;;11.91;40.67
22662;BME280;11497;52.222;21.246;2023-04-27T11:50:05;100626.28;;;11.74;40.76
22662;BME280;11497;52.222;21.246;2023-04-27T11:52:36;100621.50;;;11.86;41.15
22662;BME280;11497;52.222;21.246;2023-04-27T11:55:05;100616.00;;;11.94;41.48
22662;BME280;11497;52.222;21.246;2023-04-27T11:57:34;100618.88;;;12.35;41.54
22662;BME280;11497;52.222;21.246;2023-04-27T12:00:04;100616.22;;;12.81;40.41
22662;BME280;11497;52.222;21.246;2023-04-27T12:02:41;100608.81;;;12.69;38.63
22662;BME280;11497;52.222;21.246;2023-04-27T12:05:10;100614.53;;;12.80;38.04
22662;BME280;11497;52.222;21.246;2023-04-27T12:07:40;100612.63;;;12.84;37.64
22662;BME280;11497;52.222;21.246;2023-04-27T12:10:09;100611.28;;;12.74;38.37
22662;BME280;11497;52.222;21.246;2023-04-27T12:12:36;100613.84;;;12.75;38.55
22662;BME280;11497;52.222;21.246;2023-04-27T12:15:05;100613.25;;;12.90;37.82
22662;BME280;11497;52.222;21.246;2023-04-27T12:17:35;100614.00;;;12.94;37.51
22662;BME280;11497;52.222;21.246;2023-04-27T12:20:06;100605.41;;;13.11;36.69
22662;BME280;11497;52.222;21.246;2023-04-27T12:22:33;100600.81;;;13.17;36.49
22662;BME280;11497;52.222;21.246;2023-04-27T12:25:02;100606.06;;;13.39;35.80
22662;BME280;11497;52.222;21.246;2023-04-27T12:27:29;100608.00;;;13.95;35.37
22662;BME280;11497;52.222;21.246;2023-04-27T12:29:57;100603.00;;;14.09;34.94
22662;BME280;11497;52.222;21.246;2023-04-27T12:32:26;100612.16;;;14.40;34.28
22662;BME280;11497;52.222;21.246;2023-04-27T12:34:54;100611.59;;;14.89;33.65
22662;BME280;11497;52.222;21.246;2023-04-27T12:37:22;100601.28;;;15.21;33.31
22662;BME280;11497;52.222;21.246;2023-04-27T12:39:53;100614.28;;;15.43;32.94
22662;BME280;11497;52.222;21.246;2023-04-27T12:42:21;100591.56;;;15.75;32.13
22662;BME280;11497;52.222;21.246;2023-04-27T12:44:51;100600.34;;;16.08;32.19
22662;BME280;11497;52.222;21.246;2023-04-27T12:47:21;100601.50;;;15.87;32.32
22662;BME280;11497;52.222;21.246;2023-04-27T12:50:08;100613.81;;;14.98;31.43
22662;BME280;11497;52.222;21.246;2023-04-27T12:52:36;100620.66;;;13.67;31.38
22662;BME280;11497;52.222;21.246;2023-04-27T12:55:04;100623.41;;;13.21;31.98